createdAt,value
2022-12-25T00:01:27.866Z,5.60
2022-12-25T00:06:30.700Z,5.60
2022-12-25T00:11:33.614Z,5.60
2022-12-25T00:16:36.470Z,5.60
2022-12-25T00:21:39.347Z,5.70
2022-12-25T00:26:42.005Z,5.70
2022-12-25T00:31:46.094Z,5.80
2022-12-25T00:36:51.420Z,5.90
2022-12-25T00:42:12.438Z,5.90
2022-12-25T00:47:16.264Z,5.80
2022-12-25T00:52:19.010Z,5.90
2022-12-25T00:57:21.695Z,5.80
2022-12-25T01:02:24.490Z,5.80
2022-12-25T01:07:27.729Z,5.90
2022-12-25T01:12:31.250Z,5.80
2022-12-25T01:17:34.742Z,5.80
2022-12-25T01:22:37.775Z,5.90
2022-12-25T01:27:41.762Z,5.90
2022-12-25T01:32:44.366Z,6.10
2022-12-25T01:37:46.922Z,5.90
2022-12-25T01:42:49.573Z,6.00
2022-12-25T01:47:52.338Z,6.00
2022-12-25T01:52:56.810Z,6.00
2022-12-25T01:57:59.421Z,6.00
2022-12-25T02:03:02.414Z,6.00
2022-12-25T02:08:09.803Z,5.90
2022-12-25T02:13:17.589Z,5.80
2022-12-25T02:18:41.739Z,5.90
2022-12-25T02:24:09.236Z,5.70
2022-12-25T02:29:42.752Z,5.90
2022-12-25T02:35:13.051Z,5.80
2022-12-25T02:40:44.079Z,5.90
2022-12-25T02:46:16.872Z,5.90
2022-12-25T02:51:41.715Z,6.00
2022-12-25T02:57:05.200Z,6.00
2022-12-25T03:02:26.891Z,6.10
2022-12-25T03:07:32.775Z,6.00
2022-12-25T03:13:03.625Z,5.90
2022-12-25T03:18:12.413Z,5.80
2022-12-25T03:23:37.880Z,5.70
2022-12-25T03:28:40.635Z,5.50
2022-12-25T03:34:23.426Z,5.50
2022-12-25T03:39:39.778Z,5.40
2022-12-25T03:45:11.301Z,5.30
2022-12-25T03:50:55.281Z,5.20
2022-12-25T03:56:17.962Z,5.10
2022-12-25T04:01:38.957Z,4.90
2022-12-25T04:07:00.916Z,4.80
2022-12-25T04:12:21.862Z,4.60
2022-12-25T04:18:02.791Z,4.40
2022-12-25T04:23:24.297Z,4.30
2022-12-25T04:28:45.308Z,4.30
2022-12-25T04:34:06.376Z,4.20
2022-12-25T04:39:10.191Z,4.30
2022-12-25T04:44:12.952Z,4.40
2022-12-25T04:49:15.613Z,4.50
2022-12-25T04:54:18.227Z,4.50
2022-12-25T04:59:20.919Z,4.80
2022-12-25T05:04:23.585Z,5.00
2022-12-25T05:09:27.041Z,5.20
2022-12-25T05:14:30.086Z,5.30
2022-12-25T05:19:32.802Z,5.30
2022-12-25T05:24:35.870Z,5.40
2022-12-25T05:29:38.548Z,5.50
2022-12-25T05:34:41.325Z,5.40
2022-12-25T05:39:43.962Z,5.30
2022-12-25T05:44:46.596Z,5.40
2022-12-25T05:49:49.253Z,5.40
2022-12-25T05:54:51.915Z,5.40
2022-12-25T05:59:54.580Z,5.40
2022-12-25T06:04:57.161Z,5.30
2022-12-25T06:09:59.757Z,5.30
2022-12-25T06:15:02.443Z,5.30
2022-12-25T06:20:06.308Z,5.40
2022-12-25T06:25:09.367Z,5.60
2022-12-25T06:30:12.419Z,5.70
2022-12-25T06:35:15.506Z,5.60
2022-12-25T06:40:18.848Z,5.50
2022-12-25T06:45:21.729Z,5.60
2022-12-25T06:50:24.558Z,5.40
2022-12-25T06:55:27.525Z,5.50
2022-12-25T07:00:30.660Z,5.50
2022-12-25T07:05:33.601Z,5.50
2022-12-25T07:10:36.416Z,5.50
2022-12-25T07:15:39.216Z,5.60
2022-12-25T07:20:41.926Z,5.60
2022-12-25T07:25:53.426Z,5.60
2022-12-25T07:31:00.949Z,5.70
2022-12-25T07:36:05.912Z,5.80
2022-12-25T07:41:13.392Z,5.80
2022-12-25T07:46:16.221Z,5.80
2022-12-25T07:51:19.063Z,5.90
2022-12-25T07:56:21.837Z,6.10
2022-12-25T08:01:27.608Z,6.20
2022-12-25T08:06:33.830Z,6.20
2022-12-25T08:11:37.555Z,6.40
2022-12-25T08:16:41.956Z,6.40
2022-12-25T08:21:44.807Z,6.60
2022-12-25T08:26:47.704Z,6.80
2022-12-25T08:31:51.434Z,7.40
2022-12-25T08:36:54.228Z,7.70
2022-12-25T08:41:57.104Z,8.50
2022-12-25T08:47:00.033Z,9.90
2022-12-25T08:52:02.875Z,9.00
2022-12-25T08:57:06.105Z,9.00
2022-12-25T09:02:11.863Z,9.20
2022-12-25T09:07:14.820Z,9.40
2022-12-25T09:12:17.727Z,9.30
2022-12-25T09:17:20.618Z,9.40
2022-12-25T09:22:23.373Z,9.90
2022-12-25T09:27:26.127Z,12.70
2022-12-25T09:32:29.082Z,12.90
2022-12-25T09:37:31.977Z,14.70
2022-12-25T09:42:34.998Z,12.50
2022-12-25T09:47:40.723Z,11.40
2022-12-25T09:53:07.986Z,11.30
2022-12-25T09:58:13.977Z,12.60
2022-12-25T10:03:45.868Z,16.00
2022-12-25T10:09:01.397Z,18.40
2022-12-25T10:14:30.366Z,20.90
2022-12-25T10:19:49.883Z,20.80
2022-12-25T10:24:56.416Z,21.20
2022-12-25T10:29:59.765Z,22.10
2022-12-25T10:35:02.659Z,22.70
2022-12-25T10:40:24.637Z,22.60
2022-12-25T10:45:27.520Z,23.20
2022-12-25T10:50:31.263Z,22.10
2022-12-25T10:55:34.535Z,22.30
2022-12-25T11:00:37.745Z,22.30
2022-12-25T11:05:40.636Z,22.40
2022-12-25T11:10:44.469Z,21.50
2022-12-25T11:16:01.900Z,21.40
2022-12-25T11:21:26.540Z,21.70
2022-12-25T11:26:36.932Z,22.10
2022-12-25T11:31:44.050Z,20.80
2022-12-25T11:36:52.911Z,20.40
2022-12-25T11:42:19.819Z,20.30
2022-12-25T11:47:36.875Z,19.60
2022-12-25T11:52:46.045Z,20.10
2022-12-25T11:57:58.065Z,19.60
2022-12-25T12:03:33.020Z,19.70
2022-12-25T12:08:36.760Z,19.50
2022-12-25T12:14:01.936Z,19.00
2022-12-25T12:19:31.493Z,18.80
2022-12-25T12:24:41.394Z,18.10
2022-12-25T12:29:45.960Z,17.60
2022-12-25T12:34:50.880Z,17.60
2022-12-25T12:39:55.143Z,17.30
2022-12-25T12:45:07.952Z,17.00
2022-12-25T12:50:43.870Z,16.60
2022-12-25T12:55:46.756Z,16.50
2022-12-25T13:01:13.788Z,16.50
2022-12-25T13:06:46.587Z,16.00
2022-12-25T13:11:50.352Z,15.20
2022-12-25T13:16:54.977Z,14.40
2022-12-25T13:22:00.656Z,13.70
2022-12-25T13:27:24.930Z,13.00
2022-12-25T13:32:32.783Z,12.70
2022-12-25T13:37:35.851Z,12.20
2022-12-25T13:42:40.213Z,11.90
2022-12-25T13:47:49.900Z,11.60
2022-12-25T13:52:56.021Z,11.00
2022-12-25T13:58:01.528Z,10.60
2022-12-25T14:03:15.393Z,10.10
2022-12-25T14:08:23.450Z,9.80
2022-12-25T14:13:29.109Z,9.30
2022-12-25T14:18:32.572Z,9.60
2022-12-25T14:23:47.139Z,9.10
2022-12-25T14:28:55.668Z,8.70
2022-12-25T14:34:00.272Z,8.40
2022-12-25T14:39:05.902Z,8.00
2022-12-25T14:44:31.233Z,7.80
2022-12-25T14:49:34.144Z,7.70
2022-12-25T14:54:37.598Z,7.30
2022-12-25T14:59:40.408Z,6.90
2022-12-25T15:04:44.434Z,6.50
2022-12-25T15:09:47.105Z,6.40
2022-12-25T15:14:49.873Z,6.10
2022-12-25T15:19:54.950Z,5.90
2022-12-25T15:25:02.259Z,5.80
2022-12-25T15:30:10.190Z,5.50
2022-12-25T15:35:21.294Z,5.40
2022-12-25T15:40:24.233Z,5.20
2022-12-25T15:45:29.553Z,5.10
2022-12-25T15:50:33.102Z,4.90
2022-12-25T15:55:36.872Z,4.70
2022-12-25T16:00:39.539Z,4.60
2022-12-25T16:05:42.228Z,4.50
2022-12-25T16:10:45.010Z,4.10
2022-12-25T16:15:47.779Z,4.30
2022-12-25T16:20:52.105Z,4.50
2022-12-25T16:25:54.847Z,4.50
2022-12-25T16:30:58.283Z,4.70
2022-12-25T16:36:01.066Z,4.90
2022-12-25T16:41:03.842Z,5.10
2022-12-25T16:46:11.786Z,4.80
2022-12-25T16:51:17.756Z,4.50
2022-12-25T16:56:25.798Z,4.10
2022-12-25T17:01:28.692Z,4.20
2022-12-25T17:06:31.611Z,4.00
2022-12-25T17:11:34.284Z,3.80
2022-12-25T17:16:38.352Z,3.70
2022-12-25T17:21:41.588Z,3.70
2022-12-25T17:26:44.966Z,3.60
2022-12-25T17:31:47.863Z,3.50
2022-12-25T17:36:50.800Z,3.50
2022-12-25T17:41:53.681Z,3.50
2022-12-25T17:46:56.448Z,3.60
2022-12-25T17:51:59.177Z,3.50
2022-12-25T17:57:02.053Z,3.60
2022-12-25T18:02:05.010Z,3.70
2022-12-25T18:07:07.873Z,3.70
2022-12-25T18:12:10.672Z,3.40
2022-12-25T18:17:13.583Z,3.30
2022-12-25T18:22:16.329Z,3.10
2022-12-25T18:27:19.180Z,3.10
2022-12-25T18:32:27.846Z,3.10
2022-12-25T18:37:35.856Z,3.00
2022-12-25T18:42:43.578Z,2.80
2022-12-25T18:47:46.783Z,2.90
2022-12-25T18:52:51.653Z,3.10
2022-12-25T18:57:55.744Z,3.20
2022-12-25T19:02:59.700Z,3.20
2022-12-25T19:08:02.648Z,3.10
2022-12-25T19:13:05.956Z,3.10
2022-12-25T19:18:08.636Z,3.00
2022-12-25T19:23:11.487Z,3.10
2022-12-25T19:28:14.273Z,3.10
2022-12-25T19:33:18.076Z,3.10
2022-12-25T19:38:20.902Z,3.00
2022-12-25T19:43:24.087Z,3.10
2022-12-25T19:48:27.083Z,3.00
2022-12-25T19:53:30.646Z,3.00
2022-12-25T19:58:33.324Z,3.10
2022-12-25T20:03:43.602Z,3.00
2022-12-25T20:08:51.292Z,3.00
2022-12-25T20:13:54.313Z,3.10
2022-12-25T20:18:58.235Z,3.00
2022-12-25T20:24:01.166Z,3.10
2022-12-25T20:29:04.876Z,3.20
2022-12-25T20:34:11.288Z,3.20
2022-12-25T20:39:14.239Z,3.10
2022-12-25T20:44:18.492Z,3.30
2022-12-25T20:49:21.181Z,3.00
2022-12-25T20:54:24.623Z,3.10
2022-12-25T20:59:29.761Z,2.90
2022-12-25T21:04:36.353Z,2.90
2022-12-25T21:09:39.211Z,2.80
2022-12-25T21:14:42.116Z,2.80
2022-12-25T21:19:44.908Z,2.80
2022-12-25T21:24:52.246Z,2.80
2022-12-25T21:29:56.255Z,2.70
2022-12-25T21:34:59.024Z,2.70
2022-12-25T21:40:01.992Z,2.70
2022-12-25T21:45:05.262Z,2.70
2022-12-25T21:50:27.265Z,2.70
2022-12-25T21:55:30.434Z,2.70
2022-12-25T22:00:33.352Z,2.50
2022-12-25T22:05:55.434Z,2.40
2022-12-25T22:10:58.793Z,2.50
2022-12-25T22:16:24.304Z,2.40
2022-12-25T22:21:27.095Z,2.40
2022-12-25T22:26:29.794Z,2.30
2022-12-25T22:31:32.584Z,2.30
2022-12-25T22:36:35.262Z,2.30
2022-12-25T22:41:37.993Z,2.30
2022-12-25T22:46:41.114Z,2.40
2022-12-25T22:51:45.808Z,2.30
2022-12-25T22:56:51.363Z,2.30
2022-12-25T23:01:54.644Z,2.30
2022-12-25T23:06:57.780Z,2.30
2022-12-25T23:12:00.525Z,2.40
2022-12-25T23:17:03.486Z,2.30
2022-12-25T23:22:29.055Z,2.40
2022-12-25T23:27:32.332Z,2.40
2022-12-25T23:32:35.224Z,2.40
2022-12-25T23:37:37.984Z,2.30
2022-12-25T23:42:41.073Z,2.40
2022-12-25T23:47:43.806Z,2.40
2022-12-25T23:52:46.722Z,2.30
2022-12-25T23:57:49.893Z,2.30
